Time;durP1;ratioP1;P1;durP2;ratioP2;P2;SDS_P1;SDS_P2;PMS_P1;PMS_P2;Temp;Humidity;BMP_temperature;BMP_pressure;BME280_temperature;BME280_humidity;BME280_pressure;Samples;Min_cycle;Max_cycle;Signal;HPM_P1;HPM_P2
2022/04/27 00:01:47;;;;;;;;;;;6.00;99.90;;;;;;5076480;28;19925;-70
2022/04/27 00:04:12;;;;;;;;;;;6.00;99.90;;;;;;5076549;28;19924;-71
2022/04/27 00:06:38;;;;;;;;;;;5.80;99.90;;;;;;5075377;28;20382;-68
2022/04/27 00:09:04;;;;;;;;;;;5.70;99.90;;;;;;5076351;28;19928;-70
2022/04/27 00:11:29;;;;;;;;;;;5.80;99.90;;;;;;5076485;28;19983;-71
2022/04/27 00:13:56;;;;;;;;;;;5.70;99.90;;;;;;5075137;28;20015;-69
2022/04/27 00:16:21;;;;;;;;;;;6.40;99.90;;;;;;5076464;28;20007;-69
2022/04/27 00:18:47;;;;;;;;;;;7.30;99.90;;;;;;5076182;28;20370;-70
2022/04/27 00:21:13;;;;;;;;;;;6.70;99.90;;;;;;5109173;28;19947;-70
2022/04/27 00:23:38;;;;;;;;;;;5.60;99.90;;;;;;5076325;28;20019;-69
2022/04/27 00:26:04;;;;;;;;;;;6.60;99.90;;;;;;5075122;28;19924;-70
2022/04/27 00:28:29;;;;;;;;;;;5.80;99.90;;;;;;5076095;28;19975;-70
2022/04/27 00:30:55;;;;;;;;;;;6.10;99.90;;;;;;5074843;28;19924;-68
2022/04/27 00:33:20;;;;;;;;;;;4.40;99.90;;;;;;5076207;28;20026;-70
2022/04/27 00:35:46;;;;;;;;;;;6.80;99.90;;;;;;5075048;28;19924;-69
2022/04/27 00:38:12;;;;;;;;;;;5.50;99.90;;;;;;5074897;28;20019;-69
2022/04/27 00:40:37;;;;;;;;;;;5.40;99.90;;;;;;5075806;28;19987;-70
2022/04/27 00:43:03;;;;;;;;;;;6.00;99.90;;;;;;5075693;28;19932;-70
2022/04/27 00:45:28;;;;;;;;;;;6.90;99.90;;;;;;5075874;28;19999;-70
2022/04/27 00:47:54;;;;;;;;;;;6.10;99.90;;;;;;5074645;28;19924;-71
2022/04/27 00:50:20;;;;;;;;;;;5.90;99.90;;;;;;5074818;28;19928;-69
2022/04/27 00:52:45;;;;;;;;;;;5.40;99.90;;;;;;5075535;28;20448;-69
2022/04/27 00:55:11;;;;;;;;;;;6.00;99.90;;;;;;5075527;28;19925;-70
2022/04/27 00:57:39;;;;;;;;;;;5.30;99.90;;;;;;5075315;28;20015;-70
2022/04/27 01:00:05;;;;;;;;;;;5.20;99.90;;;;;;5074479;28;20016;-69
2022/04/27 01:02:31;;;;;;;;;;;5.20;99.90;;;;;;5075472;28;19949;-69
2022/04/27 01:04:57;;;;;;;;;;;5.20;99.90;;;;;;5075451;28;19930;-68
2022/04/27 01:07:23;;;;;;;;;;;5.90;99.90;;;;;;5074326;28;20277;-70
2022/04/27 01:09:48;;;;;;;;;;;5.00;99.90;;;;;;5075201;28;19925;-70
2022/04/27 01:12:15;;;;;;;;;;;4.90;99.90;;;;;;5075068;28;19925;-70
2022/04/27 01:14:44;;;;;;;;;;;5.20;99.90;;;;;;5075340;28;19924;-71
2022/04/27 01:17:10;;;;;;;;;;;5.30;99.90;;;;;;5075106;28;20376;-70
2022/04/27 01:19:35;;;;;;;;;;;6.40;99.90;;;;;;5075118;28;19924;-69
2022/04/27 01:22:01;;;;;;;;;;;5.40;99.90;;;;;;5075096;28;19925;-71
2022/04/27 01:24:27;;;;;;;;;;;4.60;99.90;;;;;;5075279;28;20042;-70
2022/04/27 01:26:53;;;;;;;;;;;5.40;99.90;;;;;;5074761;28;20382;-70
2022/04/27 01:29:19;;;;;;;;;;;4.40;99.90;;;;;;5074952;28;19931;-69
2022/04/27 01:31:45;;;;;;;;;;;4.40;99.90;;;;;;5074957;28;19928;-70
2022/04/27 01:34:12;;;;;;;;;;;5.50;99.90;;;;;;5074806;28;19931;-68
2022/04/27 01:36:37;;;;;;;;;;;4.90;99.90;;;;;;5074953;28;19931;-69
2022/04/27 01:39:03;;;;;;;;;;;4.40;99.90;;;;;;5073334;28;19925;-69
2022/04/27 01:41:29;;;;;;;;;;;4.70;99.90;;;;;;5073527;28;19932;-70
2022/04/27 01:43:54;;;;;;;;;;;4.50;99.90;;;;;;5074507;28;19925;-70
2022/04/27 01:46:20;;;;;;;;;;;5.30;99.90;;;;;;5073768;28;19925;-70
2022/04/27 01:48:45;;;;;;;;;;;5.40;99.90;;;;;;5073662;28;19928;-71
2022/04/27 01:51:11;;;;;;;;;;;5.50;99.90;;;;;;5074494;28;19925;-71
2022/04/27 01:56:21;;;;;;;;;;;6.10;99.90;;;;;;5074313;28;20025;-70
2022/04/27 01:58:46;;;;;;;;;;;4.70;99.90;;;;;;5073337;28;20368;-71
2022/04/27 02:01:12;;;;;;;;;;;5.10;99.90;;;;;;5074310;28;20318;-69
2022/04/27 02:03:38;;;;;;;;;;;6.40;99.90;;;;;;5074301;28;19929;-71
2022/04/27 02:06:04;;;;;;;;;;;6.40;99.90;;;;;;5074315;28;19924;-70
2022/04/27 02:08:29;;;;;;;;;;;5.00;99.90;;;;;;5073198;28;20033;-69
2022/04/27 02:10:55;;;;;;;;;;;5.20;99.90;;;;;;5073941;28;20019;-70
2022/04/27 02:13:21;;;;;;;;;;;4.70;99.90;;;;;;5074190;28;19987;-71
2022/04/27 02:15:46;;;;;;;;;;;4.80;99.90;;;;;;5073215;28;20353;-70
2022/04/27 02:18:12;;;;;;;;;;;4.80;99.90;;;;;;5072682;28;20015;-69
2022/04/27 02:20:37;;;;;;;;;;;6.40;99.90;;;;;;5073142;28;19971;-70
2022/04/27 02:23:03;;;;;;;;;;;3.90;99.90;;;;;;5072589;28;20347;-70
2022/04/27 02:25:29;;;;;;;;;;;4.80;99.90;;;;;;5106812;28;19924;-69
2022/04/27 02:27:55;;;;;;;;;;;4.80;99.90;;;;;;5073707;28;19977;-70
2022/04/27 02:30:21;;;;;;;;;;;4.70;99.90;;;;;;5073068;28;19931;-70
2022/04/27 02:32:47;;;;;;;;;;;4.80;99.90;;;;;;5106848;28;19931;-71
2022/04/27 02:35:14;;;;;;;;;;;4.70;99.90;;;;;;5073925;28;19925;-71
2022/04/27 02:37:39;;;;;;;;;;;5.40;99.90;;;;;;5073788;28;19963;-71
2022/04/27 02:40:05;;;;;;;;;;;6.10;99.90;;;;;;5073657;28;20436;-71
2022/04/27 02:42:30;;;;;;;;;;;5.00;99.90;;;;;;5072555;28;19925;-68
2022/04/27 02:44:56;;;;;;;;;;;5.00;99.90;;;;;;5072930;28;19925;-71
2022/04/27 02:47:22;;;;;;;;;;;4.90;99.90;;;;;;5072844;28;20396;-69
2022/04/27 02:52:32;;;;;;;;;;;6.70;99.90;;;;;;5073590;28;19930;-69
2022/04/27 02:54:57;;;;;;;;;;;4.90;99.90;;;;;;5073362;28;19929;-68
2022/04/27 02:57:23;;;;;;;;;;;5.30;99.90;;;;;;5072235;28;19975;-69
2022/04/27 02:59:48;;;;;;;;;;;5.40;99.90;;;;;;5073584;28;19931;-70
2022/04/27 03:02:14;;;;;;;;;;;6.70;99.90;;;;;;5072254;28;20423;-69
2022/04/27 03:04:40;;;;;;;;;;;5.10;99.90;;;;;;5072565;28;20018;-71
2022/04/27 03:07:06;;;;;;;;;;;5.10;99.90;;;;;;5074980;28;19980;-70
2022/04/27 03:09:31;;;;;;;;;;;5.30;99.90;;;;;;5077568;28;19925;-69
2022/04/27 03:11:57;;;;;;;;;;;5.80;99.90;;;;;;5077438;28;19930;-71
2022/04/27 03:14:23;;;;;;;;;;;5.90;99.90;;;;;;5076724;28;19924;-71
2022/04/27 03:16:48;;;;;;;;;;;5.20;99.90;;;;;;5077504;28;19932;-71
2022/04/27 03:19:14;;;;;;;;;;;5.20;99.90;;;;;;5110167;28;19980;-69
2022/04/27 03:21:40;;;;;;;;;;;3.80;99.90;;;;;;5077374;28;20375;-68
2022/04/27 03:24:05;;;;;;;;;;;5.30;99.90;;;;;;5077227;28;20023;-68
2022/04/27 03:26:31;;;;;;;;;;;5.30;99.90;;;;;;5076214;28;20368;-70
2022/04/27 03:28:57;;;;;;;;;;;5.70;99.90;;;;;;5076083;28;19924;-69
2022/04/27 03:31:23;;;;;;;;;;;6.10;99.90;;;;;;5075928;28;19924;-70
2022/04/27 03:33:49;;;;;;;;;;;6.30;99.90;;;;;;5077250;28;19925;-71
2022/04/27 03:36:14;;;;;;;;;;;5.30;99.90;;;;;;5077107;28;19925;-70
2022/04/27 03:38:41;;;;;;;;;;;5.60;99.90;;;;;;5075937;28;19925;-70
2022/04/27 03:41:07;;;;;;;;;;;6.20;99.90;;;;;;5076893;28;19925;-70
2022/04/27 03:43:33;;;;;;;;;;;6.30;99.90;;;;;;5075804;28;20448;-69
2022/04/27 03:45:59;;;;;;;;;;;5.50;99.90;;;;;;5077032;28;20276;-69
2022/04/27 03:48:24;;;;;;;;;;;5.40;99.90;;;;;;5076959;28;20341;-71
2022/04/27 03:50:50;;;;;;;;;;;5.50;99.90;;;;;;5076769;28;19967;-70
2022/04/27 03:53:15;;;;;;;;;;;5.70;99.90;;;;;;5075725;28;19970;-70
2022/04/27 03:55:41;;;;;;;;;;;5.50;99.90;;;;;;5076670;28;19970;-70
2022/04/27 03:58:06;;;;;;;;;;;5.50;99.90;;;;;;5075473;28;20402;-70
2022/04/27 04:00:35;;;;;;;;;;;6.20;99.90;;;;;;5076828;28;19932;-68
2022/04/27 04:03:01;;;;;;;;;;;5.50;99.90;;;;;;5076228;28;19924;-69
2022/04/27 04:05:27;;;;;;;;;;;5.80;99.90;;;;;;5076494;28;20015;-69
2022/04/27 04:07:53;;;;;;;;;;;6.70;99.90;;;;;;5075575;28;19997;-69
2022/04/27 04:10:18;;;;;;;;;;;5.40;99.90;;;;;;5076402;28;19925;-70
2022/04/27 04:12:44;;;;;;;;;;;5.50;99.90;;;;;;5074908;28;19977;-70
2022/04/27 04:15:10;;;;;;;;;;;5.90;99.90;;;;;;5075395;28;20007;-68
2022/04/27 04:17:36;;;;;;;;;;;5.90;99.90;;;;;;5074899;28;20046;-68
2022/04/27 04:20:01;;;;;;;;;;;5.60;99.90;;;;;;5076268;28;19979;-70
2022/04/27 04:22:27;;;;;;;;;;;5.60;99.90;;;;;;5076323;28;19932;-70
2022/04/27 04:30:20;;;;;;;;;;;5.60;99.90;;;;;;5076132;28;19931;-70
2022/04/27 04:32:46;;;;;;;;;;;5.60;99.90;;;;;;5076107;28;19924;-71
2022/04/27 04:35:13;;;;;;;;;;;5.10;99.90;;;;;;5075068;28;19934;-69
2022/04/27 04:37:38;;;;;;;;;;;6.70;99.90;;;;;;5075010;28;19931;-70
2022/04/27 04:40:04;;;;;;;;;;;6.80;99.90;;;;;;5075645;28;19928;-70
2022/04/27 04:42:30;;;;;;;;;;;5.70;99.90;;;;;;5058245;28;19925;-70
2022/04/27 04:44:56;;;;;;;;;;;7.40;99.90;;;;;;5074930;28;20011;-69
2022/04/27 04:47:22;;;;;;;;;;;6.30;99.90;;;;;;5074918;28;20386;-69
2022/04/27 04:49:47;;;;;;;;;;;5.80;99.90;;;;;;5074811;28;19928;-68
2022/04/27 04:52:13;;;;;;;;;;;6.20;99.90;;;;;;5074669;28;19975;-70
2022/04/27 04:54:39;;;;;;;;;;;5.90;99.90;;;;;;5074500;28;19931;-70
2022/04/27 04:57:04;;;;;;;;;;;6.10;99.90;;;;;;5074704;28;20035;-70
2022/04/27 04:59:30;;;;;;;;;;;5.90;99.90;;;;;;5075628;28;19925;-69
2022/04/27 05:01:55;;;;;;;;;;;7.30;99.90;;;;;;5074328;28;20284;-68
2022/04/27 05:04:22;;;;;;;;;;;5.70;99.90;;;;;;5075453;28;19924;-70
2022/04/27 05:06:47;;;;;;;;;;;6.00;99.90;;;;;;5074375;28;19924;-70
2022/04/27 05:09:13;;;;;;;;;;;6.30;99.90;;;;;;5075298;28;19924;-71
2022/04/27 05:11:38;;;;;;;;;;;6.10;99.90;;;;;;5073091;28;19924;-70
2022/04/27 05:14:04;;;;;;;;;;;6.90;99.90;;;;;;5074416;28;19925;-70
2022/04/27 05:16:32;;;;;;;;;;;7.00;99.90;;;;;;5108247;28;19931;-68
2022/04/27 05:18:59;;;;;;;;;;;6.20;99.90;;;;;;5074000;28;19975;-69
2022/04/27 05:21:25;;;;;;;;;;;6.50;99.90;;;;;;5073917;28;19977;-71
2022/04/27 05:23:50;;;;;;;;;;;6.30;99.90;;;;;;5073992;28;19924;-71
2022/04/27 05:26:16;;;;;;;;;;;6.30;99.90;;;;;;5074916;28;20016;-68
2022/04/27 05:34:10;;;;;;;;;;;5.40;99.90;;;;;;5074838;28;19978;-70
2022/04/27 05:36:35;;;;;;;;;;;7.10;99.90;;;;;;5074828;28;19929;-71
2022/04/27 05:39:01;;;;;;;;;;;6.40;99.90;;;;;;5073508;28;20341;-70
2022/04/27 05:41:26;;;;;;;;;;;7.20;99.90;;;;;;5073888;28;20327;-69
2022/04/27 05:43:53;;;;;;;;;;;5.20;99.90;;;;;;5073730;28;20295;-71
2022/04/27 05:46:18;;;;;;;;;;;8.10;99.90;;;;;;5074620;28;20029;-70
2022/04/27 05:48:45;;;;;;;;;;;6.50;99.90;;;;;;5073256;28;19971;-69
2022/04/27 05:51:10;;;;;;;;;;;7.10;99.90;;;;;;5074443;28;19931;-71
2022/04/27 05:53:36;;;;;;;;;;;6.60;99.90;;;;;;5073264;28;19924;-70
2022/04/27 05:56:02;;;;;;;;;;;7.20;99.90;;;;;;5073275;28;19951;-71
2022/04/27 05:58:28;;;;;;;;;;;6.70;99.90;;;;;;5074391;28;19994;-69
2022/04/27 06:00:53;;;;;;;;;;;6.80;99.90;;;;;;5074210;28;19924;-68
2022/04/27 06:03:19;;;;;;;;;;;6.80;99.90;;;;;;5073224;28;19924;-70
2022/04/27 06:05:44;;;;;;;;;;;5.70;99.90;;;;;;5074067;28;20334;-71
2022/04/27 06:08:10;;;;;;;;;;;6.80;99.90;;;;;;5073828;28;19947;-70
2022/04/27 06:10:36;;;;;;;;;;;6.00;99.90;;;;;;5073059;28;20390;-69
2022/04/27 06:13:01;;;;;;;;;;;6.90;99.90;;;;;;5074312;28;19947;-70
2022/04/27 06:15:27;;;;;;;;;;;6.90;99.90;;;;;;5073140;28;19924;-70
2022/04/27 06:17:52;;;;;;;;;;;6.90;99.90;;;;;;5074048;28;19929;-70
2022/04/27 06:20:18;;;;;;;;;;;6.90;99.90;;;;;;5073923;28;19936;-70
2022/04/27 06:22:43;;;;;;;;;;;7.00;99.90;;;;;;5072694;28;19931;-71
2022/04/27 06:25:09;;;;;;;;;;;8.60;99.90;;;;;;5073633;28;19933;-70
2022/04/27 06:27:35;;;;;;;;;;;7.10;99.90;;;;;;5073984;28;19924;-71
2022/04/27 06:30:01;;;;;;;;;;;7.10;99.90;;;;;;5073969;28;19931;-71
2022/04/27 06:32:29;;;;;;;;;;;8.90;99.90;;;;;;5073585;28;19977;-70
2022/04/27 06:34:54;;;;;;;;;;;8.20;99.90;;;;;;5073618;28;19924;-70
2022/04/27 06:37:20;;;;;;;;;;;8.10;99.90;;;;;;5072611;28;20386;-70
2022/04/27 06:39:46;;;;;;;;;;;7.30;99.90;;;;;;5072176;28;19974;-70
2022/04/27 06:42:21;;;;;;;;;;;7.30;99.90;;;;;;5073633;28;19924;-69
2022/04/27 06:44:48;;;;;;;;;;;7.30;99.90;;;;;;5072591;28;20375;-71
2022/04/27 06:47:14;;;;;;;;;;;7.40;99.90;;;;;;5072912;28;19928;-71
2022/04/27 06:49:40;;;;;;;;;;;7.80;99.90;;;;;;5073752;28;19970;-68
2022/04/27 06:52:05;;;;;;;;;;;7.40;99.90;;;;;;5072666;28;20291;-69
2022/04/27 06:54:31;;;;;;;;;;;7.50;99.90;;;;;;5073795;28;19995;-69
2022/04/27 06:56:57;;;;;;;;;;;7.50;99.90;;;;;;5072815;28;20089;-70
2022/04/27 06:59:23;;;;;;;;;;;7.60;99.90;;;;;;5072357;28;20019;-70
2022/04/27 07:01:48;;;;;;;;;;;8.30;99.90;;;;;;5073266;28;19931;-69
2022/04/27 07:04:14;;;;;;;;;;;7.60;99.90;;;;;;5073359;28;19924;-69
2022/04/27 07:06:40;;;;;;;;;;;7.70;99.90;;;;;;5072473;28;19925;-70
2022/04/27 07:09:11;;;;;;;;;;;7.70;99.90;;;;;;5073362;28;19925;-69
2022/04/27 07:11:37;;;;;;;;;;;7.70;99.90;;;;;;5072501;28;19924;-68
2022/04/27 07:14:03;;;;;;;;;;;8.70;99.90;;;;;;5072474;28;19924;-71
2022/04/27 07:16:29;;;;;;;;;;;7.90;99.90;;;;;;5073313;28;20019;-71
2022/04/27 07:18:55;;;;;;;;;;;7.90;99.90;;;;;;5073445;28;20027;-71
2022/04/27 07:21:21;;;;;;;;;;;7.90;99.90;;;;;;5073361;28;19924;-70
2022/04/27 07:23:46;;;;;;;;;;;8.00;99.90;;;;;;5055412;28;20418;-71
2022/04/27 07:26:12;;;;;;;;;;;8.00;99.90;;;;;;5073233;28;19924;-71
2022/04/27 07:28:38;;;;;;;;;;;8.10;99.90;;;;;;5073107;28;19928;-68
2022/04/27 07:31:04;;;;;;;;;;;8.10;99.90;;;;;;5072329;28;19932;-69
2022/04/27 07:33:30;;;;;;;;;;;8.30;99.90;;;;;;5073105;28;19925;-68
2022/04/27 07:35:56;;;;;;;;;;;8.30;99.90;;;;;;5073164;28;19924;-69
2022/04/27 07:38:21;;;;;;;;;;;8.30;99.90;;;;;;5072122;28;19925;-70
2022/04/27 07:40:47;;;;;;;;;;;8.40;99.90;;;;;;5073105;28;19924;-70
2022/04/27 07:43:14;;;;;;;;;;;8.40;99.90;;;;;;5071693;28;19924;-69
2022/04/27 07:45:43;;;;;;;;;;;8.50;99.90;;;;;;5072199;28;19924;-71
2022/04/27 07:48:09;;;;;;;;;;;8.60;99.90;;;;;;5071521;28;19947;-69
2022/04/27 07:50:35;;;;;;;;;;;9.00;99.90;;;;;;5072951;28;20037;-68
2022/04/27 07:53:01;;;;;;;;;;;7.30;99.90;;;;;;5074984;28;20007;-72
2022/04/27 07:55:26;;;;;;;;;;;8.80;99.90;;;;;;5076620;28;20011;-71
2022/04/27 07:57:52;;;;;;;;;;;8.70;99.90;;;;;;5075849;28;19986;-70
2022/04/27 08:00:17;;;;;;;;;;;8.80;99.90;;;;;;5076661;28;19951;-70
2022/04/27 08:02:43;;;;;;;;;;;8.80;99.90;;;;;;5075237;28;19924;-71
2022/04/27 08:05:10;;;;;;;;;;;8.90;99.90;;;;;;5075506;28;20001;-72
2022/04/27 08:07:39;;;;;;;;;;;10.10;99.90;;;;;;5075259;28;20015;-70
2022/04/27 08:10:15;;;;;;;;;;;8.90;99.90;;;;;;5076352;28;19931;-69
2022/04/27 08:12:46;;;;;;;;;;;9.00;99.90;;;;;;5076470;28;19970;-70
2022/04/27 08:15:13;;;;;;;;;;;9.10;99.90;;;;;;5075397;28;20441;-71
2022/04/27 08:17:55;;;;;;;;;;;9.10;99.90;;;;;;5076237;28;19973;-70
2022/04/27 08:23:09;;;;;;;;;;;9.20;99.90;;;;;;5076333;28;19970;-70
2022/04/27 08:25:36;;;;;;;;;;;9.30;99.90;;;;;;5076171;28;19931;-71
2022/04/27 08:28:05;;;;;;;;;;;9.60;99.90;;;;;;5076148;28;19984;-69
2022/04/27 08:30:41;;;;;;;;;;;9.40;99.90;;;;;;5076025;28;19934;-70
2022/04/27 08:33:08;;;;;;;;;;;9.50;99.90;;;;;;5075917;28;19966;-72
2022/04/27 08:35:34;;;;;;;;;;;10.20;99.90;;;;;;5075859;28;19924;-69
2022/04/27 08:38:00;;;;;;;;;;;9.50;99.90;;;;;;5076078;28;19925;-70
2022/04/27 08:40:27;;;;;;;;;;;9.50;99.90;;;;;;5075919;28;19932;-71
2022/04/27 08:42:53;;;;;;;;;;;9.50;99.90;;;;;;5075862;28;19931;-69
2022/04/27 08:45:19;;;;;;;;;;;9.60;99.90;;;;;;5075740;28;19935;-70
2022/04/27 08:47:46;;;;;;;;;;;9.60;99.90;;;;;;5074823;28;19924;-71
2022/04/27 08:50:12;;;;;;;;;;;10.00;99.90;;;;;;5075895;28;19947;-70
2022/04/27 08:52:39;;;;;;;;;;;9.70;99.90;;;;;;5075855;28;19924;-72
2022/04/27 08:55:05;;;;;;;;;;;10.30;99.90;;;;;;5074704;28;19925;-69
2022/04/27 08:57:31;;;;;;;;;;;9.70;99.90;;;;;;5075631;28;19925;-70
2022/04/27 08:59:56;;;;;;;;;;;10.80;99.90;;;;;;5074254;28;20332;-71
2022/04/27 09:02:28;;;;;;;;;;;9.70;99.90;;;;;;5075547;28;19928;-72
2022/04/27 09:05:04;;;;;;;;;;;9.80;99.90;;;;;;5075178;28;19934;-70
2022/04/27 09:07:34;;;;;;;;;;;9.80;99.90;;;;;;5074606;28;20003;-74
2022/04/27 09:10:00;;;;;;;;;;;9.40;99.90;;;;;;5075409;28;19929;-72
2022/04/27 09:12:25;;;;;;;;;;;9.90;99.90;;;;;;5074332;28;20019;-70
2022/04/27 09:14:51;;;;;;;;;;;9.90;99.90;;;;;;5074215;28;19925;-71
2022/04/27 09:22:58;;;;;;;;;;;10.00;99.90;;;;;;5075043;28;19951;-71
2022/04/27 09:25:31;;;;;;;;;;;10.10;99.90;;;;;;5074951;28;20371;-71
2022/04/27 09:27:59;;;;;;;;;;;10.10;99.90;;;;;;5074850;28;20117;-70
2022/04/27 09:30:26;;;;;;;;;;;10.10;99.90;;;;;;5074721;28;20341;-70
2022/04/27 09:32:51;;;;;;;;;;;10.20;99.90;;;;;;5074795;28;19931;-70
2022/04/27 09:35:28;;;;;;;;;;;10.20;99.90;;;;;;5074851;28;19925;-70
2022/04/27 09:37:54;;;;;;;;;;;10.20;99.90;;;;;;5073841;28;19932;-73
2022/04/27 09:40:19;;;;;;;;;;;10.20;99.90;;;;;;5074555;28;20299;-69
2022/04/27 09:42:46;;;;;;;;;;;10.30;99.90;;;;;;5074642;28;19925;-73
2022/04/27 09:45:16;;;;;;;;;;;10.20;99.90;;;;;;5074696;28;19986;-69
2022/04/27 09:47:48;;;;;;;;;;;10.30;99.90;;;;;;5073754;28;20037;-70
2022/04/27 09:50:15;;;;;;;;;;;10.40;99.90;;;;;;5073476;28;19931;-70
2022/04/27 09:52:40;;;;;;;;;;;10.40;99.90;;;;;;5074267;28;19931;-71
2022/04/27 09:55:07;;;;;;;;;;;10.40;99.90;;;;;;5074314;28;19925;-70
2022/04/27 09:57:35;;;;;;;;;;;10.50;99.90;;;;;;5074624;28;19924;-69
2022/04/27 10:00:01;;;;;;;;;;;10.50;99.90;;;;;;5074305;28;19924;-70
2022/04/27 10:02:30;;;;;;;;;;;10.50;99.90;;;;;;5072924;28;19925;-70
2022/04/27 10:04:58;;;;;;;;;;;10.60;99.90;;;;;;5072510;28;20098;-69
2022/04/27 10:07:25;;;;;;;;;;;10.60;95.10;;;;;;5107159;28;19925;-71
2022/04/27 10:09:51;;;;;;;;;;;11.70;98.40;;;;;;5073024;28;19931;-72
2022/04/27 10:12:17;;;;;;;;;;;10.70;99.90;;;;;;5072918;28;19928;-71
2022/04/27 10:14:44;;;;;;;;;;;10.80;99.90;;;;;;5073605;28;19931;-72
2022/04/27 10:17:10;;;;;;;;;;;10.70;99.90;;;;;;5073142;28;19924;-70
2022/04/27 10:19:44;;;;;;;;;;;10.80;99.90;;;;;;5055518;28;19971;-69
2022/04/27 10:22:30;;;;;;;;;;;10.80;99.90;;;;;;5071452;28;19924;-69
2022/04/27 10:24:56;;;;;;;;;;;10.80;99.90;;;;;;5073970;28;19994;-70
2022/04/27 10:27:23;;;;;;;;;;;10.80;99.90;;;;;;5072991;28;20344;-71
2022/04/27 10:29:50;;;;;;;;;;;10.80;99.90;;;;;;5073734;28;20023;-70
2022/04/27 10:32:35;;;;;;;;;;;10.70;99.90;;;;;;5073598;28;19931;-69
2022/04/27 10:35:14;;;;;;;;;;;10.60;99.90;;;;;;5073368;28;20015;-70
2022/04/27 10:37:43;;;;;;;;;;;10.60;99.90;;;;;;5073787;28;20372;-70
2022/04/27 10:40:25;;;;;;;;;;;10.60;99.90;;;;;;5073606;28;20364;-69
2022/04/27 10:42:50;;;;;;;;;;;10.70;99.90;;;;;;5072212;28;20016;-70
2022/04/27 10:45:22;;;;;;;;;;;10.80;99.90;;;;;;5073273;28;20018;-72
2022/04/27 10:47:47;;;;;;;;;;;11.00;99.90;;;;;;5073343;28;19924;-70
2022/04/27 10:50:13;;;;;;;;;;;11.50;99.90;;;;;;5073697;28;19924;-72
2022/04/27 10:52:43;;;;;;;;;;;11.00;91.10;;;;;;5073215;28;19924;-70
2022/04/27 10:55:28;;;;;;;;;;;11.10;99.90;;;;;;5073457;28;20391;-72
2022/04/27 10:58:19;;;;;;;;;;;11.10;99.90;;;;;;5072259;28;20264;-71
2022/04/27 11:00:57;;;;;;;;;;;11.20;98.00;;;;;;4998423;28;19960;-71
2022/04/27 11:03:24;;;;;;;;;;;11.60;98.20;;;;;;5014467;28;19925;-70
2022/04/27 11:05:50;;;;;;;;;;;11.40;96.50;;;;;;5030999;28;19960;-71
2022/04/27 11:08:21;;;;;;;;;;;11.40;97.10;;;;;;5015043;28;19969;-73
2022/04/27 11:10:48;;;;;;;;;;;10.30;99.10;;;;;;5029918;28;19925;-71
2022/04/27 11:13:32;;;;;;;;;;;11.50;94.50;;;;;;5028514;28;19925;-72
2022/04/27 11:16:24;;;;;;;;;;;11.60;93.20;;;;;;5012443;28;20028;-69
2022/04/27 11:18:53;;;;;;;;;;;11.60;91.80;;;;;;5016058;28;19975;-69
2022/04/27 11:21:19;;;;;;;;;;;11.70;90.20;;;;;;5014784;28;20020;-72
2022/04/27 11:23:45;;;;;;;;;;;11.80;97.30;;;;;;5029986;28;19936;-71
2022/04/27 11:26:10;;;;;;;;;;;11.90;98.40;;;;;;5014434;28;19925;-72
2022/04/27 11:28:40;;;;;;;;;;;11.90;97.10;;;;;;5002776;28;20355;-68
2022/04/27 11:31:06;;;;;;;;;;;12.00;96.50;;;;;;5017424;28;19932;-69
2022/04/27 11:33:35;;;;;;;;;;;12.90;88.40;;;;;;5018537;28;20332;-72
2022/04/27 11:36:01;;;;;;;;;;;12.10;89.30;;;;;;5007106;28;19925;-71
2022/04/27 11:38:35;;;;;;;;;;;12.10;91.50;;;;;;5042892;28;20042;-68
2022/04/27 11:41:02;;;;;;;;;;;12.10;86.40;;;;;;5056920;28;19925;-69
2022/04/27 11:43:40;;;;;;;;;;;12.10;97.70;;;;;;5056746;28;19932;-70
2022/04/27 11:46:08;;;;;;;;;;;12.00;94.40;;;;;;5070616;28;19924;-70
2022/04/27 11:48:33;;;;;;;;;;;12.00;85.90;;;;;;5076539;28;20433;-69
2022/04/27 11:51:00;;;;;;;;;;;11.90;85.00;;;;;;5075529;28;19924;-70
2022/04/27 11:53:26;;;;;;;;;;;12.80;86.10;;;;;;5076774;28;19931;-70
2022/04/27 11:55:52;;;;;;;;;;;12.00;86.60;;;;;;5076577;28;19928;-70
2022/04/27 11:58:22;;;;;;;;;;;12.00;84.10;;;;;;5075446;28;19925;-70
2022/04/27 12:00:49;;;;;;;;;;;12.00;78.80;;;;;;5068830;28;19932;-70
2022/04/27 12:03:15;;;;;;;;;;;12.10;88.50;;;;;;5067875;28;20287;-72
2022/04/27 12:05:40;;;;;;;;;;;12.20;81.60;;;;;;5073784;28;20003;-73
2022/04/27 12:08:09;;;;;;;;;;;13.20;81.70;;;;;;5074331;28;19931;-70
2022/04/27 12:10:41;;;;;;;;;;;12.20;83.70;;;;;;5076299;28;19925;-71
2022/04/27 12:13:07;;;;;;;;;;;12.30;80.40;;;;;;5075376;28;20027;-72
2022/04/27 12:15:33;;;;;;;;;;;13.30;78.10;;;;;;5074090;28;20042;-70
2022/04/27 12:18:01;;;;;;;;;;;12.20;79.80;;;;;;5074700;28;19955;-69
2022/04/27 12:20:30;;;;;;;;;;;12.20;80.30;;;;;;5075760;28;20375;-70
2022/04/27 12:22:57;;;;;;;;;;;12.30;87.30;;;;;;5057751;28;20432;-71
2022/04/27 12:25:36;;;;;;;;;;;12.30;76.50;;;;;;5075116;28;19928;-70
2022/04/27 12:28:03;;;;;;;;;;;12.30;78.80;;;;;;5075916;28;19971;-70
2022/04/27 12:30:28;;;;;;;;;;;12.90;87.50;;;;;;5074900;28;20299;-70
2022/04/27 12:32:54;;;;;;;;;;;12.40;87.50;;;;;;5076014;28;19924;-70
2022/04/27 12:38:10;;;;;;;;;;;12.60;86.20;;;;;;5074372;28;19932;-70
2022/04/27 12:40:36;;;;;;;;;;;12.70;83.50;;;;;;5070869;28;19924;-70
2022/04/27 12:43:05;;;;;;;;;;;12.70;85.60;;;;;;5074617;28;19931;-70
2022/04/27 12:45:31;;;;;;;;;;;12.60;74.70;;;;;;5068688;28;20029;-75
2022/04/27 12:47:57;;;;;;;;;;;12.50;79.50;;;;;;5091664;28;19929;-70
2022/04/27 12:50:22;;;;;;;;;;;12.70;76.30;;;;;;5063261;28;19954;-70
2022/04/27 12:52:49;;;;;;;;;;;12.40;80.40;;;;;;5064866;28;19979;-70
2022/04/27 12:55:15;;;;;;;;;;;13.30;82.40;;;;;;5063016;28;20304;-70
2022/04/27 12:57:44;;;;;;;;;;;12.40;81.60;;;;;;5064253;28;19970;-70
2022/04/27 13:00:11;;;;;;;;;;;12.40;89.00;;;;;;5055095;28;20343;-69
2022/04/27 13:02:37;;;;;;;;;;;12.50;94.80;;;;;;5053988;28;19925;-70
2022/04/27 13:05:03;;;;;;;;;;;12.30;95.10;;;;;;5054134;28;19932;-71
2022/04/27 13:07:29;;;;;;;;;;;12.30;99.90;;;;;;5070910;28;19935;-70
2022/04/27 13:12:39;;;;;;;;;;;12.30;99.90;;;;;;5055145;28;19936;-68
2022/04/27 13:15:05;;;;;;;;;;;12.30;99.90;;;;;;5053937;28;19925;-71
2022/04/27 13:17:31;;;;;;;;;;;12.30;99.90;;;;;;5056535;28;19932;-69
2022/04/27 13:19:57;;;;;;;;;;;12.30;99.90;;;;;;5073750;28;19925;-70
2022/04/27 13:22:24;;;;;;;;;;;12.30;99.90;;;;;;5072982;28;19924;-70
2022/04/27 13:24:50;;;;;;;;;;;12.30;99.90;;;;;;5072713;28;19931;-70
2022/04/27 13:27:18;;;;;;;;;;;12.30;99.90;;;;;;5066686;28;19972;-70
2022/04/27 13:29:44;;;;;;;;;;;12.20;99.90;;;;;;5061324;28;19928;-70
2022/04/27 13:32:10;;;;;;;;;;;12.20;99.90;;;;;;5072858;28;20410;-70
2022/04/27 13:34:36;;;;;;;;;;;12.10;99.90;;;;;;5073800;28;20372;-70
2022/04/27 13:37:01;;;;;;;;;;;12.10;99.90;;;;;;5074720;28;19925;-73
2022/04/27 13:39:27;;;;;;;;;;;12.10;99.90;;;;;;5073739;28;19996;-70
2022/04/27 13:41:52;;;;;;;;;;;12.10;99.90;;;;;;5056599;28;19925;-72
2022/04/27 13:44:18;;;;;;;;;;;12.10;99.90;;;;;;5054688;28;20372;-70
2022/04/27 13:46:43;;;;;;;;;;;12.20;99.90;;;;;;5070507;28;19964;-72
2022/04/27 13:49:09;;;;;;;;;;;12.20;99.90;;;;;;5073240;28;19970;-70
2022/04/27 13:51:34;;;;;;;;;;;12.30;99.90;;;;;;5072524;28;19973;-72
2022/04/27 13:54:01;;;;;;;;;;;12.20;99.90;;;;;;5073337;28;20252;-71
2022/04/27 13:56:27;;;;;;;;;;;12.80;99.90;;;;;;5073056;28;19970;-70
2022/04/27 13:58:52;;;;;;;;;;;12.70;99.90;;;;;;5073981;28;19991;-72
2022/04/27 14:01:18;;;;;;;;;;;13.00;99.90;;;;;;5073073;28;20325;-69
2022/04/27 14:03:47;;;;;;;;;;;12.60;99.90;;;;;;5074132;28;19948;-71
2022/04/27 14:06:15;;;;;;;;;;;12.70;99.90;;;;;;5072858;28;20410;-70
2022/04/27 14:08:40;;;;;;;;;;;12.80;99.90;;;;;;5107064;28;20368;-70
2022/04/27 14:11:06;;;;;;;;;;;12.80;99.90;;;;;;5072972;28;19931;-70
2022/04/27 14:13:32;;;;;;;;;;;12.80;99.90;;;;;;5072925;28;20375;-70
2022/04/27 14:18:41;;;;;;;;;;;12.70;99.90;;;;;;5072471;28;19929;-70
2022/04/27 14:21:07;;;;;;;;;;;12.60;99.90;;;;;;5072393;28;19974;-70
2022/04/27 14:23:32;;;;;;;;;;;12.50;99.90;;;;;;5071610;28;19924;-71
2022/04/27 14:25:58;;;;;;;;;;;12.50;99.90;;;;;;5073646;28;19979;-70
2022/04/27 14:28:24;;;;;;;;;;;12.50;99.90;;;;;;5065977;28;19924;-72
2022/04/27 14:30:50;;;;;;;;;;;12.40;99.90;;;;;;5072753;28;19974;-70
2022/04/27 14:33:19;;;;;;;;;;;12.40;99.90;;;;;;5067449;28;20387;-73
2022/04/27 14:35:45;;;;;;;;;;;12.40;99.90;;;;;;5072747;28;19971;-71
2022/04/27 14:38:11;;;;;;;;;;;12.40;99.90;;;;;;5073621;28;20355;-70
2022/04/27 14:40:37;;;;;;;;;;;12.30;99.90;;;;;;5072316;28;20299;-70
2022/04/27 14:43:03;;;;;;;;;;;12.30;99.90;;;;;;5073680;28;19925;-73
2022/04/27 14:45:31;;;;;;;;;;;12.30;99.90;;;;;;5072316;28;19928;-72
2022/04/27 14:47:57;;;;;;;;;;;12.30;99.90;;;;;;5073508;28;19932;-70
2022/04/27 14:50:23;;;;;;;;;;;12.30;99.90;;;;;;5073599;28;19925;-71
2022/04/27 14:52:49;;;;;;;;;;;12.20;99.90;;;;;;5072285;28;19977;-71
2022/04/27 14:55:14;;;;;;;;;;;13.00;99.90;;;;;;5072371;28;19970;-70
2022/04/27 14:57:40;;;;;;;;;;;12.00;99.90;;;;;;5072379;28;19936;-71